sensor_id;sensor_type;location;lat;lon;timestamp;temperature;humidity
16271;DHT22;8243;49.048;8.396;2022-11-20T00:02:15;5.10;99.90
16271;DHT22;8243;49.048;8.396;2022-11-20T00:04:40;5.00;99.90
16271;DHT22;8243;49.048;8.396;2022-11-20T00:07:06;4.90;99.90
16271;DHT22;8243;49.048;8.396;2022-11-20T00:09:31;5.20;99.90
16271;DHT22;8243;49.048;8.396;2022-11-20T00:11:57;5.20;99.90
16271;DHT22;8243;49.048;8.396;2022-11-20T00:14:22;5.10;99.90
16271;DHT22;8243;49.048;8.396;2022-11-20T00:16:48;5.10;99.90
16271;DHT22;8243;49.048;8.396;2022-11-20T00:19:14;5.20;99.90
16271;DHT22;8243;49.048;8.396;2022-11-20T00:21:39;5.10;99.90
16271;DHT22;8243;49.048;8.396;2022-11-20T00:24:05;5.10;99.90
16271;DHT22;8243;49.048;8.396;2022-11-20T00:26:31;5.20;99.90
16271;DHT22;8243;49.048;8.396;2022-11-20T00:29:00;5.10;99.90
16271;DHT22;8243;49.048;8.396;2022-11-20T00:31:26;5.00;99.90
16271;DHT22;8243;49.048;8.396;2022-11-20T00:33:53;5.00;99.90
16271;DHT22;8243;49.048;8.396;2022-11-20T00:36:20;5.10;99.90
16271;DHT22;8243;49.048;8.396;2022-11-20T00:38:47;5.20;99.90
16271;DHT22;8243;49.048;8.396;2022-11-20T00:41:14;5.00;99.90
16271;DHT22;8243;49.048;8.396;2022-11-20T00:43:41;5.10;99.90
16271;DHT22;8243;49.048;8.396;2022-11-20T00:46:18;5.10;99.90
16271;DHT22;8243;49.048;8.396;2022-11-20T00:48:44;5.00;99.90
16271;DHT22;8243;49.048;8.396;2022-11-20T00:51:16;5.10;99.90
16271;DHT22;8243;49.048;8.396;2022-11-20T00:53:44;5.20;99.90
16271;DHT22;8243;49.048;8.396;2022-11-20T00:56:13;5.10;99.90
16271;DHT22;8243;49.048;8.396;2022-11-20T00:58:40;5.30;99.90
16271;DHT22;8243;49.048;8.396;2022-11-20T01:01:18;5.20;99.90
16271;DHT22;8243;49.048;8.396;2022-11-20T01:03:47;5.30;99.90
16271;DHT22;8243;49.048;8.396;2022-11-20T01:06:24;5.20;99.90
16271;DHT22;8243;49.048;8.396;2022-11-20T01:08:52;5.20;99.90
16271;DHT22;8243;49.048;8.396;2022-11-20T01:11:24;5.30;99.90
16271;DHT22;8243;49.048;8.396;2022-11-20T01:13:51;5.30;99.90
16271;DHT22;8243;49.048;8.396;2022-11-20T01:16:28;5.40;99.90
16271;DHT22;8243;49.048;8.396;2022-11-20T01:18:57;5.30;99.90
16271;DHT22;8243;49.048;8.396;2022-11-20T01:21:34;5.40;99.90
16271;DHT22;8243;49.048;8.396;2022-11-20T01:24:01;5.50;99.90
16271;DHT22;8243;49.048;8.396;2022-11-20T01:26:30;5.40;99.90
16271;DHT22;8243;49.048;8.396;2022-11-20T01:28:57;5.50;99.90
16271;DHT22;8243;49.048;8.396;2022-11-20T01:31:28;5.40;99.90
16271;DHT22;8243;49.048;8.396;2022-11-20T01:33:57;5.40;99.90
16271;DHT22;8243;49.048;8.396;2022-11-20T01:36:24;5.40;99.90
16271;DHT22;8243;49.048;8.396;2022-11-20T01:38:55;5.60;99.90
16271;DHT22;8243;49.048;8.396;2022-11-20T01:41:22;5.50;99.90
16271;DHT22;8243;49.048;8.396;2022-11-20T01:44:07;5.50;99.90
16271;DHT22;8243;49.048;8.396;2022-11-20T01:46:38;5.70;99.90
16271;DHT22;8243;49.048;8.396;2022-11-20T01:49:08;5.60;99.90
16271;DHT22;8243;49.048;8.396;2022-11-20T01:51:40;5.60;99.90
16271;DHT22;8243;49.048;8.396;2022-11-20T01:54:11;5.70;99.90
16271;DHT22;8243;49.048;8.396;2022-11-20T01:56:42;5.80;99.90
16271;DHT22;8243;49.048;8.396;2022-11-20T01:59:10;5.90;99.90
16271;DHT22;8243;49.048;8.396;2022-11-20T02:01:37;5.90;99.90
16271;DHT22;8243;49.048;8.396;2022-11-20T02:04:04;6.00;99.90
16271;DHT22;8243;49.048;8.396;2022-11-20T02:06:33;6.10;99.90
16271;DHT22;8243;49.048;8.396;2022-11-20T02:09:00;6.10;99.90
16271;DHT22;8243;49.048;8.396;2022-11-20T02:11:26;6.20;99.90
16271;DHT22;8243;49.048;8.396;2022-11-20T02:13:51;6.20;99.90
16271;DHT22;8243;49.048;8.396;2022-11-20T02:16:30;6.30;99.90
16271;DHT22;8243;49.048;8.396;2022-11-20T02:19:00;6.30;99.90
16271;DHT22;8243;49.048;8.396;2022-11-20T02:21:33;6.30;99.90
16271;DHT22;8243;49.048;8.396;2022-11-20T02:24:00;6.30;99.90
16271;DHT22;8243;49.048;8.396;2022-11-20T02:26:28;6.40;99.90
16271;DHT22;8243;49.048;8.396;2022-11-20T02:28:55;6.40;99.90
16271;DHT22;8243;49.048;8.396;2022-11-20T02:31:20;6.50;99.90
16271;DHT22;8243;49.048;8.396;2022-11-20T02:33:46;6.50;99.90
16271;DHT22;8243;49.048;8.396;2022-11-20T02:36:15;6.60;99.90
16271;DHT22;8243;49.048;8.396;2022-11-20T02:38:42;6.70;99.90
16271;DHT22;8243;49.048;8.396;2022-11-20T02:41:08;6.70;99.90
16271;DHT22;8243;49.048;8.396;2022-11-20T02:43:34;6.80;99.90
16271;DHT22;8243;49.048;8.396;2022-11-20T02:45:59;6.80;99.90
16271;DHT22;8243;49.048;8.396;2022-11-20T02:48:25;6.90;99.90
16271;DHT22;8243;49.048;8.396;2022-11-20T02:50:50;6.90;99.90
16271;DHT22;8243;49.048;8.396;2022-11-20T02:53:16;6.90;99.90
16271;DHT22;8243;49.048;8.396;2022-11-20T02:55:41;6.90;99.90
16271;DHT22;8243;49.048;8.396;2022-11-20T02:58:07;7.00;99.90
16271;DHT22;8243;49.048;8.396;2022-11-20T03:00:32;7.00;99.90
16271;DHT22;8243;49.048;8.396;2022-11-20T03:02:58;7.00;99.90
16271;DHT22;8243;49.048;8.396;2022-11-20T03:05:24;7.10;99.90
16271;DHT22;8243;49.048;8.396;2022-11-20T03:07:50;7.10;99.90
16271;DHT22;8243;49.048;8.396;2022-11-20T03:10:15;7.10;99.90
16271;DHT22;8243;49.048;8.396;2022-11-20T03:12:41;7.10;99.90
16271;DHT22;8243;49.048;8.396;2022-11-20T03:15:07;7.10;99.90
16271;DHT22;8243;49.048;8.396;2022-11-20T03:17:32;7.10;99.90
16271;DHT22;8243;49.048;8.396;2022-11-20T03:19:58;7.10;99.90
16271;DHT22;8243;49.048;8.396;2022-11-20T03:22:23;7.20;99.90
16271;DHT22;8243;49.048;8.396;2022-11-20T03:24:49;7.20;99.90
16271;DHT22;8243;49.048;8.396;2022-11-20T03:27:14;7.20;99.90
16271;DHT22;8243;49.048;8.396;2022-11-20T03:29:40;7.20;99.90
16271;DHT22;8243;49.048;8.396;2022-11-20T03:32:05;7.20;99.90
16271;DHT22;8243;49.048;8.396;2022-11-20T03:34:31;7.30;99.90
16271;DHT22;8243;49.048;8.396;2022-11-20T03:36:57;7.30;99.90
16271;DHT22;8243;49.048;8.396;2022-11-20T03:39:22;7.30;99.90
16271;DHT22;8243;49.048;8.396;2022-11-20T03:41:48;7.20;99.90
16271;DHT22;8243;49.048;8.396;2022-11-20T03:44:13;7.30;99.90
16271;DHT22;8243;49.048;8.396;2022-11-20T03:46:39;7.20;99.90
16271;DHT22;8243;49.048;8.396;2022-11-20T03:49:04;7.20;99.90
16271;DHT22;8243;49.048;8.396;2022-11-20T03:51:33;7.20;99.90
16271;DHT22;8243;49.048;8.396;2022-11-20T03:54:01;7.20;99.90
16271;DHT22;8243;49.048;8.396;2022-11-20T03:56:29;7.20;99.90
16271;DHT22;8243;49.048;8.396;2022-11-20T03:58:55;7.30;99.90
16271;DHT22;8243;49.048;8.396;2022-11-20T04:01:22;7.30;99.90
16271;DHT22;8243;49.048;8.396;2022-11-20T04:03:49;7.30;99.90
16271;DHT22;8243;49.048;8.396;2022-11-20T04:06:20;7.30;99.90
16271;DHT22;8243;49.048;8.396;2022-11-20T04:08:46;7.30;99.90
16271;DHT22;8243;49.048;8.396;2022-11-20T04:11:16;7.30;99.90
16271;DHT22;8243;49.048;8.396;2022-11-20T04:13:45;7.30;99.90
16271;DHT22;8243;49.048;8.396;2022-11-20T04:16:11;7.40;99.90
16271;DHT22;8243;49.048;8.396;2022-11-20T04:18:37;7.40;99.90
16271;DHT22;8243;49.048;8.396;2022-11-20T04:21:03;7.40;99.90
16271;DHT22;8243;49.048;8.396;2022-11-20T04:23:29;7.40;99.90
16271;DHT22;8243;49.048;8.396;2022-11-20T04:25:55;7.40;99.90
16271;DHT22;8243;49.048;8.396;2022-11-20T04:28:25;7.40;99.90
16271;DHT22;8243;49.048;8.396;2022-11-20T04:30:51;7.40;99.90
16271;DHT22;8243;49.048;8.396;2022-11-20T04:33:16;7.40;99.90
16271;DHT22;8243;49.048;8.396;2022-11-20T04:35:42;7.40;99.90
16271;DHT22;8243;49.048;8.396;2022-11-20T04:38:08;7.40;99.90
16271;DHT22;8243;49.048;8.396;2022-11-20T04:40:33;7.40;99.90
16271;DHT22;8243;49.048;8.396;2022-11-20T04:42:59;7.40;99.90
16271;DHT22;8243;49.048;8.396;2022-11-20T04:45:25;7.50;99.90
16271;DHT22;8243;49.048;8.396;2022-11-20T04:47:50;7.50;99.90
16271;DHT22;8243;49.048;8.396;2022-11-20T04:50:16;7.50;99.90
16271;DHT22;8243;49.048;8.396;2022-11-20T04:52:41;7.50;99.90
16271;DHT22;8243;49.048;8.396;2022-11-20T04:55:07;7.50;99.90
16271;DHT22;8243;49.048;8.396;2022-11-20T04:57:33;7.50;99.90
16271;DHT22;8243;49.048;8.396;2022-11-20T04:59:58;7.50;99.90
16271;DHT22;8243;49.048;8.396;2022-11-20T05:02:24;7.60;99.90
16271;DHT22;8243;49.048;8.396;2022-11-20T05:04:49;7.60;99.90
16271;DHT22;8243;49.048;8.396;2022-11-20T05:07:15;7.50;99.90
16271;DHT22;8243;49.048;8.396;2022-11-20T05:09:40;7.50;99.90
16271;DHT22;8243;49.048;8.396;2022-11-20T05:12:09;7.50;99.90
16271;DHT22;8243;49.048;8.396;2022-11-20T05:14:35;7.50;99.90
16271;DHT22;8243;49.048;8.396;2022-11-20T05:17:00;7.50;99.90
16271;DHT22;8243;49.048;8.396;2022-11-20T05:19:26;7.50;99.90
16271;DHT22;8243;49.048;8.396;2022-11-20T05:21:51;7.50;99.90
16271;DHT22;8243;49.048;8.396;2022-11-20T05:24:17;7.50;99.90
16271;DHT22;8243;49.048;8.396;2022-11-20T05:26:43;7.50;99.90
16271;DHT22;8243;49.048;8.396;2022-11-20T05:29:12;7.40;99.90
16271;DHT22;8243;49.048;8.396;2022-11-20T05:31:39;7.50;99.90
16271;DHT22;8243;49.048;8.396;2022-11-20T05:34:05;7.40;99.90
16271;DHT22;8243;49.048;8.396;2022-11-20T05:36:31;7.40;99.90
16271;DHT22;8243;49.048;8.396;2022-11-20T05:38:56;7.40;99.90
16271;DHT22;8243;49.048;8.396;2022-11-20T05:41:22;7.40;99.90
16271;DHT22;8243;49.048;8.396;2022-11-20T05:43:48;7.40;99.90
16271;DHT22;8243;49.048;8.396;2022-11-20T05:46:16;7.40;99.90
16271;DHT22;8243;49.048;8.396;2022-11-20T05:48:43;7.40;99.90
16271;DHT22;8243;49.048;8.396;2022-11-20T05:51:11;7.40;99.90
16271;DHT22;8243;49.048;8.396;2022-11-20T05:53:37;7.40;99.90
16271;DHT22;8243;49.048;8.396;2022-11-20T05:56:04;7.40;99.90
16271;DHT22;8243;49.048;8.396;2022-11-20T05:58:31;7.40;99.90
16271;DHT22;8243;49.048;8.396;2022-11-20T06:03:33;7.40;99.90
16271;DHT22;8243;49.048;8.396;2022-11-20T06:05:59;7.50;99.90
16271;DHT22;8243;49.048;8.396;2022-11-20T06:08:25;7.40;99.90
16271;DHT22;8243;49.048;8.396;2022-11-20T06:10:50;7.50;99.90
16271;DHT22;8243;49.048;8.396;2022-11-20T06:13:16;7.40;99.90
16271;DHT22;8243;49.048;8.396;2022-11-20T06:15:41;7.40;99.90
16271;DHT22;8243;49.048;8.396;2022-11-20T06:18:07;7.50;99.90
16271;DHT22;8243;49.048;8.396;2022-11-20T06:20:32;7.50;99.90
16271;DHT22;8243;49.048;8.396;2022-11-20T06:22:58;7.40;99.90
16271;DHT22;8243;49.048;8.396;2022-11-20T06:25:23;7.50;99.90
16271;DHT22;8243;49.048;8.396;2022-11-20T06:27:49;7.40;99.90
16271;DHT22;8243;49.048;8.396;2022-11-20T06:30:14;7.40;99.90
16271;DHT22;8243;49.048;8.396;2022-11-20T06:32:40;7.40;99.90
16271;DHT22;8243;49.048;8.396;2022-11-20T06:35:06;7.40;99.90
16271;DHT22;8243;49.048;8.396;2022-11-20T06:37:31;7.40;99.90
16271;DHT22;8243;49.048;8.396;2022-11-20T06:39:57;7.40;99.90
16271;DHT22;8243;49.048;8.396;2022-11-20T06:42:22;7.40;99.90
16271;DHT22;8243;49.048;8.396;2022-11-20T06:44:48;7.40;99.90
16271;DHT22;8243;49.048;8.396;2022-11-20T06:47:13;7.40;99.90
16271;DHT22;8243;49.048;8.396;2022-11-20T06:49:39;7.50;99.90
16271;DHT22;8243;49.048;8.396;2022-11-20T06:52:05;7.40;99.90
16271;DHT22;8243;49.048;8.396;2022-11-20T06:54:30;7.40;99.90
16271;DHT22;8243;49.048;8.396;2022-11-20T06:56:56;7.50;99.90
16271;DHT22;8243;49.048;8.396;2022-11-20T06:59:21;7.50;99.90
16271;DHT22;8243;49.048;8.396;2022-11-20T07:01:47;7.50;99.90
16271;DHT22;8243;49.048;8.396;2022-11-20T07:04:12;7.50;99.90
16271;DHT22;8243;49.048;8.396;2022-11-20T07:06:38;7.50;99.90
16271;DHT22;8243;49.048;8.396;2022-11-20T07:09:03;7.50;99.90
16271;DHT22;8243;49.048;8.396;2022-11-20T07:11:29;7.50;99.90
16271;DHT22;8243;49.048;8.396;2022-11-20T07:13:56;7.50;99.90
16271;DHT22;8243;49.048;8.396;2022-11-20T07:16:22;7.50;99.90
16271;DHT22;8243;49.048;8.396;2022-11-20T07:18:48;7.50;99.90
16271;DHT22;8243;49.048;8.396;2022-11-20T07:21:13;7.50;99.90
16271;DHT22;8243;49.048;8.396;2022-11-20T07:23:39;7.50;99.90
16271;DHT22;8243;49.048;8.396;2022-11-20T07:26:06;7.50;99.90
16271;DHT22;8243;49.048;8.396;2022-11-20T07:28:33;7.50;99.90
16271;DHT22;8243;49.048;8.396;2022-11-20T07:30:58;7.50;99.90
16271;DHT22;8243;49.048;8.396;2022-11-20T07:33:24;7.50;99.90
16271;DHT22;8243;49.048;8.396;2022-11-20T07:35:50;7.50;99.90
16271;DHT22;8243;49.048;8.396;2022-11-20T07:38:15;7.50;99.90
16271;DHT22;8243;49.048;8.396;2022-11-20T07:40:41;7.40;99.90
16271;DHT22;8243;49.048;8.396;2022-11-20T07:43:06;7.50;99.90
16271;DHT22;8243;49.048;8.396;2022-11-20T07:45:32;7.40;99.90
16271;DHT22;8243;49.048;8.396;2022-11-20T07:47:58;7.40;99.90
16271;DHT22;8243;49.048;8.396;2022-11-20T07:50:23;7.40;99.90
16271;DHT22;8243;49.048;8.396;2022-11-20T07:52:49;7.40;99.90
16271;DHT22;8243;49.048;8.396;2022-11-20T07:55:14;7.50;99.90
16271;DHT22;8243;49.048;8.396;2022-11-20T07:57:40;7.40;99.90
16271;DHT22;8243;49.048;8.396;2022-11-20T08:00:07;7.40;99.90
16271;DHT22;8243;49.048;8.396;2022-11-20T08:02:40;7.40;99.90
16271;DHT22;8243;49.048;8.396;2022-11-20T08:05:06;7.40;99.90
16271;DHT22;8243;49.048;8.396;2022-11-20T08:07:39;7.40;99.90
16271;DHT22;8243;49.048;8.396;2022-11-20T08:10:07;7.40;99.90
16271;DHT22;8243;49.048;8.396;2022-11-20T08:12:33;7.40;99.90
16271;DHT22;8243;49.048;8.396;2022-11-20T08:15:17;7.50;99.90
16271;DHT22;8243;49.048;8.396;2022-11-20T08:17:43;7.40;99.90
16271;DHT22;8243;49.048;8.396;2022-11-20T08:20:09;7.50;99.90
16271;DHT22;8243;49.048;8.396;2022-11-20T08:22:34;7.50;99.90
16271;DHT22;8243;49.048;8.396;2022-11-20T08:25:00;7.60;99.90
16271;DHT22;8243;49.048;8.396;2022-11-20T08:27:26;7.60;99.90
16271;DHT22;8243;49.048;8.396;2022-11-20T08:29:51;7.60;99.90
16271;DHT22;8243;49.048;8.396;2022-11-20T08:32:19;7.60;99.90
16271;DHT22;8243;49.048;8.396;2022-11-20T08:34:45;7.60;99.90
16271;DHT22;8243;49.048;8.396;2022-11-20T08:37:11;7.60;99.90
16271;DHT22;8243;49.048;8.396;2022-11-20T08:39:37;7.70;99.90
16271;DHT22;8243;49.048;8.396;2022-11-20T08:42:06;7.70;99.90
16271;DHT22;8243;49.048;8.396;2022-11-20T08:44:31;7.70;99.90
16271;DHT22;8243;49.048;8.396;2022-11-20T08:46:57;7.70;99.90
16271;DHT22;8243;49.048;8.396;2022-11-20T08:49:22;7.70;99.90
16271;DHT22;8243;49.048;8.396;2022-11-20T08:51:48;7.80;99.90
16271;DHT22;8243;49.048;8.396;2022-11-20T08:54:16;7.80;99.90
16271;DHT22;8243;49.048;8.396;2022-11-20T08:56:45;7.80;99.90
16271;DHT22;8243;49.048;8.396;2022-11-20T08:59:10;7.80;99.90
16271;DHT22;8243;49.048;8.396;2022-11-20T09:01:36;7.90;99.90
16271;DHT22;8243;49.048;8.396;2022-11-20T09:04:01;7.90;99.90
16271;DHT22;8243;49.048;8.396;2022-11-20T09:06:29;7.90;99.90
16271;DHT22;8243;49.048;8.396;2022-11-20T09:08:54;7.90;99.90
16271;DHT22;8243;49.048;8.396;2022-11-20T09:11:21;7.90;99.90
16271;DHT22;8243;49.048;8.396;2022-11-20T09:13:46;7.90;99.90
16271;DHT22;8243;49.048;8.396;2022-11-20T09:16:12;7.90;99.90
16271;DHT22;8243;49.048;8.396;2022-11-20T09:18:37;7.90;99.90
16271;DHT22;8243;49.048;8.396;2022-11-20T09:21:06;8.00;99.90
16271;DHT22;8243;49.048;8.396;2022-11-20T09:23:33;8.00;99.90
16271;DHT22;8243;49.048;8.396;2022-11-20T09:26:10;8.10;99.90
16271;DHT22;8243;49.048;8.396;2022-11-20T09:28:37;8.20;99.90
16271;DHT22;8243;49.048;8.396;2022-11-20T09:31:11;8.20;99.90
16271;DHT22;8243;49.048;8.396;2022-11-20T09:33:39;8.30;99.90
16271;DHT22;8243;49.048;8.396;2022-11-20T09:36:04;8.40;99.90
16271;DHT22;8243;49.048;8.396;2022-11-20T09:38:30;8.50;99.90
16271;DHT22;8243;49.048;8.396;2022-11-20T09:40:58;8.50;99.90
16271;DHT22;8243;49.048;8.396;2022-11-20T09:47:11;8.70;99.90
16271;DHT22;8243;49.048;8.396;2022-11-20T09:49:59;8.70;99.90
16271;DHT22;8243;49.048;8.396;2022-11-20T09:52:32;8.80;99.90
16271;DHT22;8243;49.048;8.396;2022-11-20T09:55:03;8.70;99.90
16271;DHT22;8243;49.048;8.396;2022-11-20T09:57:38;8.60;99.90
16271;DHT22;8243;49.048;8.396;2022-11-20T10:00:09;8.50;99.90
16271;DHT22;8243;49.048;8.396;2022-11-20T10:02:53;8.50;99.90
16271;DHT22;8243;49.048;8.396;2022-11-20T10:05:27;8.40;99.90
16271;DHT22;8243;49.048;8.396;2022-11-20T10:08:10;8.40;99.90
16271;DHT22;8243;49.048;8.396;2022-11-20T10:10:46;8.40;99.90
16271;DHT22;8243;49.048;8.396;2022-11-20T10:19:15;8.60;99.90
16271;DHT22;8243;49.048;8.396;2022-11-20T10:30:07;9.10;99.90
16271;DHT22;8243;49.048;8.396;2022-11-20T10:32:42;9.10;99.90
16271;DHT22;8243;49.048;8.396;2022-11-20T10:35:32;9.20;99.90
16271;DHT22;8243;49.048;8.396;2022-11-20T10:38:01;9.10;99.90
16271;DHT22;8243;49.048;8.396;2022-11-20T10:42:57;9.30;99.90
16271;DHT22;8243;49.048;8.396;2022-11-20T10:48:16;9.40;99.90
16271;DHT22;8243;49.048;8.396;2022-11-20T10:53:54;9.60;99.90
16271;DHT22;8243;49.048;8.396;2022-11-20T10:56:28;9.60;99.90
16271;DHT22;8243;49.048;8.396;2022-11-20T10:59:29;9.60;99.90
16271;DHT22;8243;49.048;8.396;2022-11-20T11:01:58;9.70;99.90
16271;DHT22;8243;49.048;8.396;2022-11-20T11:07:15;9.70;99.90
16271;DHT22;8243;49.048;8.396;2022-11-20T11:09:56;9.80;99.90
16271;DHT22;8243;49.048;8.396;2022-11-20T11:12:27;9.90;99.90
16271;DHT22;8243;49.048;8.396;2022-11-20T11:14:55;9.80;99.90
16271;DHT22;8243;49.048;8.396;2022-11-20T11:17:32;9.80;99.90
16271;DHT22;8243;49.048;8.396;2022-11-20T11:20:05;9.90;99.90
16271;DHT22;8243;49.048;8.396;2022-11-20T11:22:34;10.00;99.90
16271;DHT22;8243;49.048;8.396;2022-11-20T11:25:00;10.10;99.90
16271;DHT22;8243;49.048;8.396;2022-11-20T11:27:26;10.10;99.90
16271;DHT22;8243;49.048;8.396;2022-11-20T11:30:03;10.20;99.90
16271;DHT22;8243;49.048;8.396;2022-11-20T11:32:29;10.30;99.90
16271;DHT22;8243;49.048;8.396;2022-11-20T11:35:03;10.50;99.90
16271;DHT22;8243;49.048;8.396;2022-11-20T11:37:39;10.60;99.90
16271;DHT22;8243;49.048;8.396;2022-11-20T11:40:06;10.50;99.90
16271;DHT22;8243;49.048;8.396;2022-11-20T11:42:32;10.50;99.90
16271;DHT22;8243;49.048;8.396;2022-11-20T11:44:59;10.40;99.90
16271;DHT22;8243;49.048;8.396;2022-11-20T11:47:46;10.40;99.90
16271;DHT22;8243;49.048;8.396;2022-11-20T11:50:16;10.50;99.90
16271;DHT22;8243;49.048;8.396;2022-11-20T11:53:02;10.70;99.90
16271;DHT22;8243;49.048;8.396;2022-11-20T11:55:45;11.00;99.90
16271;DHT22;8243;49.048;8.396;2022-11-20T11:58:27;11.20;99.90
16271;DHT22;8243;49.048;8.396;2022-11-20T12:03:55;11.60;96.90
16271;DHT22;8243;49.048;8.396;2022-11-20T12:06:25;11.90;93.10
16271;DHT22;8243;49.048;8.396;2022-11-20T12:08:57;11.80;87.80
16271;DHT22;8243;49.048;8.396;2022-11-20T12:14:04;11.60;82.40
16271;DHT22;8243;49.048;8.396;2022-11-20T12:16:37;11.60;79.90
16271;DHT22;8243;49.048;8.396;2022-11-20T12:19:10;11.40;78.80
16271;DHT22;8243;49.048;8.396;2022-11-20T12:29:56;10.60;73.50
16271;DHT22;8243;49.048;8.396;2022-11-20T12:43:04;11.10;71.60
16271;DHT22;8243;49.048;8.396;2022-11-20T12:54:36;11.70;57.20
16271;DHT22;8243;49.048;8.396;2022-11-20T12:57:20;11.80;55.50
16271;DHT22;8243;49.048;8.396;2022-11-20T13:07:38;11.80;47.70
16271;DHT22;8243;49.048;8.396;2022-11-20T13:10:15;11.90;46.90
16271;DHT22;8243;49.048;8.396;2022-11-20T13:12:47;11.80;45.20
16271;DHT22;8243;49.048;8.396;2022-11-20T13:15:23;11.80;44.30
16271;DHT22;8243;49.048;8.396;2022-11-20T13:17:58;11.50;43.50
16271;DHT22;8243;49.048;8.396;2022-11-20T13:20:24;11.30;44.70
16271;DHT22;8243;49.048;8.396;2022-11-20T13:22:55;11.00;45.30
16271;DHT22;8243;49.048;8.396;2022-11-20T13:25:31;10.80;45.60
16271;DHT22;8243;49.048;8.396;2022-11-20T13:27:58;10.70;46.10
16271;DHT22;8243;49.048;8.396;2022-11-20T13:30:28;10.60;45.70
16271;DHT22;8243;49.048;8.396;2022-11-20T13:32:55;10.60;45.70
16271;DHT22;8243;49.048;8.396;2022-11-20T13:35:35;10.60;46.90
16271;DHT22;8243;49.048;8.396;2022-11-20T13:38:02;10.50;45.20
16271;DHT22;8243;49.048;8.396;2022-11-20T13:40:32;10.40;45.40
16271;DHT22;8243;49.048;8.396;2022-11-20T13:45:58;10.50;45.40
16271;DHT22;8243;49.048;8.396;2022-11-20T13:48:28;10.60;43.30
16271;DHT22;8243;49.048;8.396;2022-11-20T13:51:08;10.70;42.10
16271;DHT22;8243;49.048;8.396;2022-11-20T13:56:38;10.60;41.40
16271;DHT22;8243;49.048;8.396;2022-11-20T14:01:57;10.30;42.90
16271;DHT22;8243;49.048;8.396;2022-11-20T14:04:28;10.20;44.00
16271;DHT22;8243;49.048;8.396;2022-11-20T14:06:55;10.10;44.20
16271;DHT22;8243;49.048;8.396;2022-11-20T14:09:29;10.10;44.40
16271;DHT22;8243;49.048;8.396;2022-11-20T14:11:55;10.10;44.40
16271;DHT22;8243;49.048;8.396;2022-11-20T14:14:24;10.00;44.30
16271;DHT22;8243;49.048;8.396;2022-11-20T14:16:50;9.90;45.50
16271;DHT22;8243;49.048;8.396;2022-11-20T14:21:46;9.70;45.80
16271;DHT22;8243;49.048;8.396;2022-11-20T14:24:13;9.60;46.30
16271;DHT22;8243;49.048;8.396;2022-11-20T14:26:43;9.50;47.10
16271;DHT22;8243;49.048;8.396;2022-11-20T14:29:21;9.50;47.20
16271;DHT22;8243;49.048;8.396;2022-11-20T14:31:50;9.50;47.60
16271;DHT22;8243;49.048;8.396;2022-11-20T14:34:25;9.50;47.10
16271;DHT22;8243;49.048;8.396;2022-11-20T14:36:56;9.50;48.10
16271;DHT22;8243;49.048;8.396;2022-11-20T14:39:27;9.40;48.50
16271;DHT22;8243;49.048;8.396;2022-11-20T14:41:54;9.40;48.90
16271;DHT22;8243;49.048;8.396;2022-11-20T14:44:25;9.30;49.70
16271;DHT22;8243;49.048;8.396;2022-11-20T14:46:52;9.30;49.70
16271;DHT22;8243;49.048;8.396;2022-11-20T14:49:18;9.40;49.80
16271;DHT22;8243;49.048;8.396;2022-11-20T14:51:43;9.40;49.10
16271;DHT22;8243;49.048;8.396;2022-11-20T14:54:17;9.40;49.40
16271;DHT22;8243;49.048;8.396;2022-11-20T14:57:03;9.40;49.90
16271;DHT22;8243;49.048;8.396;2022-11-20T14:59:33;9.30;49.80
16271;DHT22;8243;49.048;8.396;2022-11-20T15:02:03;9.30;50.30
16271;DHT22;8243;49.048;8.396;2022-11-20T15:04:29;9.20;50.30
16271;DHT22;8243;49.048;8.396;2022-11-20T15:06:57;9.20;49.80
16271;DHT22;8243;49.048;8.396;2022-11-20T15:09:22;9.20;50.20
16271;DHT22;8243;49.048;8.396;2022-11-20T15:11:59;9.10;51.10
16271;DHT22;8243;49.048;8.396;2022-11-20T15:14:26;9.10;50.70
16271;DHT22;8243;49.048;8.396;2022-11-20T15:16:53;9.10;51.90
16271;DHT22;8243;49.048;8.396;2022-11-20T15:19:23;9.00;52.00
16271;DHT22;8243;49.048;8.396;2022-11-20T15:21:50;8.90;52.40
16271;DHT22;8243;49.048;8.396;2022-11-20T15:24:16;8.90;52.20
16271;DHT22;8243;49.048;8.396;2022-11-20T15:26:42;8.80;52.40
16271;DHT22;8243;49.048;8.396;2022-11-20T15:29:12;8.80;53.00
16271;DHT22;8243;49.048;8.396;2022-11-20T15:31:38;8.80;52.60
16271;DHT22;8243;49.048;8.396;2022-11-20T15:34:14;8.70;53.00
16271;DHT22;8243;49.048;8.396;2022-11-20T15:36:41;8.70;53.90
16271;DHT22;8243;49.048;8.396;2022-11-20T15:39:07;8.70;53.80
16271;DHT22;8243;49.048;8.396;2022-11-20T15:41:33;8.70;54.70
16271;DHT22;8243;49.048;8.396;2022-11-20T15:43:59;8.70;55.60
16271;DHT22;8243;49.048;8.396;2022-11-20T15:46:30;8.70;55.50
16271;DHT22;8243;49.048;8.396;2022-11-20T15:48:59;8.70;55.80
16271;DHT22;8243;49.048;8.396;2022-11-20T15:53:55;8.70;56.10
16271;DHT22;8243;49.048;8.396;2022-11-20T15:56:21;8.70;56.00
16271;DHT22;8243;49.048;8.396;2022-11-20T15:58:46;8.70;56.70
16271;DHT22;8243;49.048;8.396;2022-11-20T16:01:14;8.70;56.00
16271;DHT22;8243;49.048;8.396;2022-11-20T16:03:40;8.70;56.00
16271;DHT22;8243;49.048;8.396;2022-11-20T16:06:06;8.70;56.70
16271;DHT22;8243;49.048;8.396;2022-11-20T16:08:32;8.70;56.60
16271;DHT22;8243;49.048;8.396;2022-11-20T16:10:57;8.70;56.70
16271;DHT22;8243;49.048;8.396;2022-11-20T16:13:23;8.70;56.70
16271;DHT22;8243;49.048;8.396;2022-11-20T16:16:17;8.70;56.90
16271;DHT22;8243;49.048;8.396;2022-11-20T16:18:44;8.70;56.70
16271;DHT22;8243;49.048;8.396;2022-11-20T16:21:13;8.70;56.00
16271;DHT22;8243;49.048;8.396;2022-11-20T16:23:39;8.70;56.00
16271;DHT22;8243;49.048;8.396;2022-11-20T16:26:17;8.70;56.10
16271;DHT22;8243;49.048;8.396;2022-11-20T16:28:43;8.70;56.70
16271;DHT22;8243;49.048;8.396;2022-11-20T16:31:14;8.70;56.70
16271;DHT22;8243;49.048;8.396;2022-11-20T16:33:41;8.60;57.20
16271;DHT22;8243;49.048;8.396;2022-11-20T16:36:17;8.70;57.60
16271;DHT22;8243;49.048;8.396;2022-11-20T16:38:43;8.60;57.30
16271;DHT22;8243;49.048;8.396;2022-11-20T16:41:09;8.60;57.50
16271;DHT22;8243;49.048;8.396;2022-11-20T16:43:47;8.60;57.60
16271;DHT22;8243;49.048;8.396;2022-11-20T16:46:14;8.60;57.70
16271;DHT22;8243;49.048;8.396;2022-11-20T16:48:39;8.60;57.40
16271;DHT22;8243;49.048;8.396;2022-11-20T16:51:08;8.70;57.50
16271;DHT22;8243;49.048;8.396;2022-11-20T16:53:35;8.70;57.30
16271;DHT22;8243;49.048;8.396;2022-11-20T16:56:15;8.70;57.30
16271;DHT22;8243;49.048;8.396;2022-11-20T16:58:45;8.60;57.30
16271;DHT22;8243;49.048;8.396;2022-11-20T17:01:13;8.60;57.20
16271;DHT22;8243;49.048;8.396;2022-11-20T17:03:41;8.70;57.40
16271;DHT22;8243;49.048;8.396;2022-11-20T17:06:18;8.70;57.60
16271;DHT22;8243;49.048;8.396;2022-11-20T17:08:45;8.70;57.10
16271;DHT22;8243;49.048;8.396;2022-11-20T17:11:13;8.70;57.70
16271;DHT22;8243;49.048;8.396;2022-11-20T17:13:39;8.70;58.40
16271;DHT22;8243;49.048;8.396;2022-11-20T17:16:09;8.70;60.20
16271;DHT22;8243;49.048;8.396;2022-11-20T17:18:36;8.60;62.70
16271;DHT22;8243;49.048;8.396;2022-11-20T17:21:03;8.60;64.50
16271;DHT22;8243;49.048;8.396;2022-11-20T17:23:32;8.60;66.30
16271;DHT22;8243;49.048;8.396;2022-11-20T17:26:10;8.50;68.10
16271;DHT22;8243;49.048;8.396;2022-11-20T17:28:37;8.50;70.40
16271;DHT22;8243;49.048;8.396;2022-11-20T17:31:05;8.50;71.70
16271;DHT22;8243;49.048;8.396;2022-11-20T17:33:34;8.50;72.10
16271;DHT22;8243;49.048;8.396;2022-11-20T17:36:06;8.40;72.70